createdAt,value
2017-11-03T00:02:19.873Z,78.46
2017-11-03T00:04:47.332Z,78.86
2017-11-03T00:07:14.789Z,79.08
2017-11-03T00:09:42.238Z,79.27
2017-11-03T00:12:09.675Z,79.50
2017-11-03T00:14:37.155Z,79.17
2017-11-03T00:17:04.668Z,79.04
2017-11-03T00:19:32.166Z,79.42
2017-11-03T00:21:59.600Z,79.73
2017-11-03T00:24:27.276Z,79.83
2017-11-03T00:26:54.750Z,79.93
2017-11-03T00:29:22.193Z,80.07
2017-11-03T00:31:49.640Z,80.07
2017-11-03T00:34:18.351Z,80.30
2017-11-03T00:36:45.817Z,80.42
2017-11-03T00:39:13.316Z,80.45
2017-11-03T00:41:42.119Z,80.54
2017-11-03T00:44:09.656Z,80.58
2017-11-03T00:46:37.109Z,80.72
2017-11-03T00:49:04.599Z,80.72
2017-11-03T00:51:32.109Z,80.65
2017-11-03T00:53:59.570Z,80.54
2017-11-03T00:56:27.105Z,80.22
2017-11-03T00:58:54.712Z,79.63
2017-11-03T01:01:22.121Z,79.08
2017-11-03T01:03:49.606Z,78.78
2017-11-03T01:06:17.071Z,78.72
2017-11-03T01:08:44.596Z,78.74
2017-11-03T01:11:12.069Z,79.21
2017-11-03T01:13:39.604Z,79.30
2017-11-03T01:16:07.149Z,78.89
2017-11-03T01:18:35.535Z,78.51
2017-11-03T01:21:03.867Z,78.55
2017-11-03T01:23:31.408Z,78.63
2017-11-03T01:25:58.920Z,78.30
2017-11-03T01:28:26.446Z,78.23
2017-11-03T01:30:53.946Z,78.21
2017-11-03T01:33:21.418Z,78.29
2017-11-03T01:35:48.841Z,78.25
2017-11-03T01:38:17.376Z,78.05
2017-11-03T01:40:44.860Z,77.66
2017-11-03T01:43:12.297Z,77.69
2017-11-03T01:45:39.856Z,77.84
2017-11-03T01:48:07.369Z,77.86
2017-11-03T01:50:34.871Z,78.06
2017-11-03T01:53:02.377Z,77.96
2017-11-03T01:55:29.838Z,77.95
2017-11-03T01:57:57.307Z,78.12
2017-11-03T02:00:24.736Z,78.53
2017-11-03T02:02:52.311Z,78.67
2017-11-03T02:05:19.778Z,78.75
2017-11-03T02:07:47.269Z,78.83
2017-11-03T02:10:14.870Z,78.78
2017-11-03T02:12:42.340Z,78.68
2017-11-03T02:15:09.801Z,78.58
2017-11-03T02:17:37.272Z,78.80
2017-11-03T02:20:04.818Z,78.87
2017-11-03T02:22:32.273Z,78.76
2017-11-03T02:24:59.738Z,78.73
2017-11-03T02:27:27.297Z,78.66
2017-11-03T02:29:54.758Z,78.46
2017-11-03T02:32:22.180Z,78.25
2017-11-03T02:34:49.649Z,78.16
2017-11-03T02:37:17.099Z,78.36
2017-11-03T02:39:44.556Z,78.37
2017-11-03T02:42:12.028Z,78.37
2017-11-03T02:44:40.724Z,78.48
2017-11-03T02:47:08.166Z,78.74
2017-11-03T02:49:35.628Z,78.92
2017-11-03T02:52:03.692Z,79.08
2017-11-03T02:54:31.164Z,79.34
2017-11-03T02:56:58.596Z,79.49
2017-11-03T02:59:26.472Z,79.68
2017-11-03T03:01:53.911Z,79.51
2017-11-03T03:04:21.341Z,79.30
2017-11-03T03:06:48.807Z,79.32
2017-11-03T03:09:16.318Z,79.38
2017-11-03T03:11:43.828Z,79.45
2017-11-03T03:14:11.349Z,79.40
2017-11-03T03:16:38.878Z,79.51
2017-11-03T03:19:06.332Z,79.61
2017-11-03T03:21:33.792Z,79.51
2017-11-03T03:24:01.230Z,79.46
2017-11-03T03:26:28.748Z,79.78
2017-11-03T03:28:57.041Z,80.04
2017-11-03T03:31:24.541Z,80.05
2017-11-03T03:33:52.023Z,80.01
2017-11-03T03:36:19.448Z,80.09
2017-11-03T03:38:46.962Z,80.25
2017-11-03T03:41:14.461Z,80.38
2017-11-03T03:43:41.918Z,80.35
2017-11-03T03:46:10.526Z,80.13
2017-11-03T03:48:37.964Z,79.88
2017-11-03T03:51:05.400Z,80.33
2017-11-03T03:53:32.861Z,80.61
2017-11-03T03:56:00.453Z,80.75
2017-11-03T03:58:27.918Z,80.55
2017-11-03T04:00:56.079Z,80.19
2017-11-03T04:03:23.535Z,80.35
2017-11-03T04:05:51.003Z,80.87
2017-11-03T04:08:18.559Z,81.26
2017-11-03T04:10:46.189Z,81.01
2017-11-03T04:13:13.672Z,80.62
2017-11-03T04:15:41.158Z,80.30
2017-11-03T04:18:08.650Z,80.66
2017-11-03T04:20:36.131Z,80.68
2017-11-03T04:23:03.640Z,80.39
2017-11-03T04:25:31.142Z,80.16
2017-11-03T04:27:58.620Z,79.99
2017-11-03T04:30:26.068Z,79.79
2017-11-03T04:32:53.514Z,79.72
2017-11-03T04:35:20.951Z,79.66
2017-11-03T04:37:48.420Z,79.71
2017-11-03T04:40:15.862Z,79.69
2017-11-03T04:42:43.396Z,79.69
2017-11-03T04:45:10.897Z,79.53
2017-11-03T04:47:38.374Z,79.11
2017-11-03T04:50:05.854Z,79.35
2017-11-03T04:52:33.279Z,79.98
2017-11-03T04:55:00.726Z,80.22
2017-11-03T04:57:28.197Z,80.19
2017-11-03T04:59:55.730Z,80.06
2017-11-03T05:02:23.180Z,79.85
2017-11-03T05:04:50.647Z,79.97
2017-11-03T05:07:18.066Z,79.33
2017-11-03T05:09:45.552Z,78.79
2017-11-03T05:12:13.007Z,79.82
2017-11-03T05:14:41.192Z,80.67
2017-11-03T05:17:08.629Z,81.13
2017-11-03T05:19:36.148Z,80.96
2017-11-03T05:22:03.673Z,80.36
2017-11-03T05:24:31.134Z,80.18
2017-11-03T05:26:58.574Z,80.04
2017-11-03T05:29:26.151Z,80.08
2017-11-03T05:31:53.613Z,80.13
2017-11-03T05:34:21.033Z,80.07
2017-11-03T05:36:48.544Z,79.78
2017-11-03T05:39:16.048Z,79.71
2017-11-03T05:41:43.512Z,79.67
2017-11-03T05:44:10.979Z,79.56
2017-11-03T05:46:38.449Z,79.42
2017-11-03T05:49:05.902Z,79.10
2017-11-03T05:51:33.335Z,78.92
2017-11-03T05:54:01.661Z,78.92
2017-11-03T05:56:29.173Z,78.74
2017-11-03T05:58:56.645Z,78.82
2017-11-03T06:01:24.130Z,78.61
2017-11-03T06:03:51.581Z,78.79
2017-11-03T06:06:19.060Z,79.34
2017-11-03T06:08:46.545Z,79.59
2017-11-03T06:11:14.035Z,79.50
2017-11-03T06:13:41.598Z,79.48
2017-11-03T06:16:09.104Z,79.77
2017-11-03T06:18:37.115Z,79.87
2017-11-03T06:21:04.561Z,79.89
2017-11-03T06:23:32.052Z,79.77
2017-11-03T06:26:00.618Z,79.78
2017-11-03T06:28:28.086Z,79.71
2017-11-03T06:30:55.517Z,79.58
2017-11-03T06:33:22.997Z,79.30
2017-11-03T06:35:50.473Z,79.25
2017-11-03T06:38:17.909Z,82.53
2017-11-03T06:40:45.332Z,83.57
2017-11-03T06:43:12.777Z,80.11
2017-11-03T06:45:40.180Z,72.84
2017-11-03T06:48:07.683Z,70.34
2017-11-03T06:50:35.119Z,68.04
2017-11-03T06:53:02.582Z,65.65
2017-11-03T06:55:29.984Z,64.84
2017-11-03T06:57:57.425Z,65.18
2017-11-03T07:00:25.104Z,65.31
2017-11-03T07:02:52.538Z,64.36
2017-11-03T07:05:19.994Z,64.44
2017-11-03T07:07:47.434Z,64.60
2017-11-03T07:10:14.868Z,65.35
2017-11-03T07:12:42.315Z,64.07
2017-11-03T07:15:09.809Z,65.91
2017-11-03T07:17:37.209Z,68.27
2017-11-03T07:20:04.654Z,69.20
2017-11-03T07:22:32.097Z,70.39
2017-11-03T07:24:59.531Z,71.51
2017-11-03T07:27:26.959Z,72.10
2017-11-03T07:29:54.383Z,73.42
2017-11-03T07:32:21.825Z,73.53
2017-11-03T07:34:49.266Z,73.47
2017-11-03T07:37:16.729Z,73.70
2017-11-03T07:39:44.124Z,73.56
2017-11-03T07:42:11.566Z,73.81
2017-11-03T07:44:39.221Z,74.46
2017-11-03T07:47:06.660Z,74.79
2017-11-03T07:49:34.117Z,75.17
2017-11-03T07:52:01.607Z,76.06
2017-11-03T07:54:29.047Z,76.34
2017-11-03T07:56:56.534Z,76.41
2017-11-03T07:59:23.984Z,76.47
2017-11-03T08:01:51.399Z,76.39
2017-11-03T08:04:18.855Z,76.42
2017-11-03T08:06:46.267Z,76.46
2017-11-03T08:09:13.714Z,76.80
2017-11-03T08:11:41.122Z,76.70
2017-11-03T08:14:08.605Z,76.76
2017-11-03T08:16:36.039Z,76.81
2017-11-03T08:19:03.564Z,77.01
2017-11-03T08:21:30.995Z,77.07
2017-11-03T08:23:58.604Z,77.09
2017-11-03T08:26:26.022Z,76.98
2017-11-03T08:28:53.443Z,76.10
2017-11-03T08:31:20.883Z,76.20
2017-11-03T08:33:48.355Z,76.51
2017-11-03T08:36:15.807Z,76.81
2017-11-03T08:38:43.257Z,76.92
2017-11-03T08:41:10.708Z,76.99
2017-11-03T08:43:38.166Z,76.82
2017-11-03T08:46:06.104Z,76.61
2017-11-03T08:48:33.723Z,76.41
2017-11-03T08:51:01.164Z,76.06
2017-11-03T08:53:28.601Z,76.23
2017-11-03T08:55:56.009Z,76.04
2017-11-03T08:58:23.437Z,75.76
2017-11-03T09:00:50.891Z,75.44
2017-11-03T09:03:18.353Z,75.64
2017-11-03T09:05:46.572Z,75.48
2017-11-03T09:08:14.032Z,75.41
2017-11-03T09:10:41.448Z,75.55
2017-11-03T09:13:08.844Z,75.50
2017-11-03T09:15:36.317Z,75.18
2017-11-03T09:18:03.718Z,74.72
2017-11-03T09:20:31.160Z,74.39
2017-11-03T09:22:58.610Z,74.33
2017-11-03T09:25:26.060Z,74.19
2017-11-03T09:27:53.459Z,73.64
2017-11-03T09:30:20.885Z,73.36
2017-11-03T09:32:48.355Z,73.73
2017-11-03T09:35:15.790Z,73.83
2017-11-03T09:37:43.236Z,73.73
2017-11-03T09:40:10.683Z,73.84
2017-11-03T09:42:38.074Z,73.61
2017-11-03T09:45:05.505Z,73.65
2017-11-03T09:47:32.936Z,73.13
2017-11-03T09:50:00.366Z,73.07
2017-11-03T09:52:27.867Z,73.01
2017-11-03T09:54:55.288Z,73.09
2017-11-03T09:57:22.770Z,72.63
2017-11-03T09:59:50.173Z,72.39
2017-11-03T10:02:17.619Z,72.24
2017-11-03T10:04:45.051Z,72.50
2017-11-03T10:07:12.523Z,72.53
2017-11-03T10:09:39.960Z,72.14
2017-11-03T10:12:07.519Z,72.15
2017-11-03T10:14:34.961Z,71.85
2017-11-03T10:17:02.403Z,72.02
2017-11-03T10:19:29.871Z,71.73
2017-11-03T10:21:57.345Z,71.78
2017-11-03T10:24:24.788Z,71.46
2017-11-03T10:26:52.262Z,71.51
2017-11-03T10:29:19.697Z,71.30
2017-11-03T10:31:47.144Z,70.68
2017-11-03T10:34:14.605Z,70.26
2017-11-03T10:36:42.047Z,70.10
2017-11-03T10:39:09.511Z,70.54
2017-11-03T10:41:36.911Z,70.36
2017-11-03T10:44:04.345Z,70.75
2017-11-03T10:46:31.869Z,70.19
2017-11-03T10:48:59.385Z,70.35
2017-11-03T10:51:30.431Z,70.18
2017-11-03T10:53:57.873Z,69.97
2017-11-03T10:56:25.374Z,69.66
2017-11-03T10:58:52.816Z,69.67
2017-11-03T11:01:20.269Z,69.63
2017-11-03T11:03:47.710Z,69.37
2017-11-03T11:06:15.159Z,69.33
2017-11-03T11:08:42.590Z,68.63
2017-11-03T11:11:10.070Z,68.25
2017-11-03T11:13:37.704Z,68.10
2017-11-03T11:16:05.324Z,67.60
2017-11-03T11:18:32.875Z,67.43
2017-11-03T11:21:00.293Z,66.98
2017-11-03T11:23:27.806Z,66.53
2017-11-03T11:25:55.240Z,66.50
2017-11-03T11:28:22.680Z,66.14
2017-11-03T11:30:50.141Z,66.23
2017-11-03T11:33:17.590Z,65.83
2017-11-03T11:35:45.019Z,65.82
2017-11-03T11:38:12.427Z,65.86
2017-11-03T11:40:39.904Z,65.93
2017-11-03T11:43:07.626Z,65.59
2017-11-03T11:45:35.049Z,65.51
2017-11-03T11:48:02.591Z,65.16
2017-11-03T11:50:30.017Z,64.79
2017-11-03T11:52:57.508Z,65.07
2017-11-03T11:55:24.940Z,63.82
2017-11-03T11:57:52.450Z,63.65
2017-11-03T12:00:19.871Z,63.82
2017-11-03T12:02:47.304Z,63.99
2017-11-03T12:05:14.736Z,64.19
2017-11-03T12:07:42.203Z,64.41
2017-11-03T12:10:09.652Z,64.39
2017-11-03T12:12:37.139Z,64.55
2017-11-03T12:15:04.559Z,64.11
2017-11-03T12:17:31.996Z,62.62
2017-11-03T12:19:59.392Z,62.68
2017-11-03T12:22:26.851Z,62.41
2017-11-03T12:24:54.285Z,62.76
2017-11-03T12:27:21.751Z,61.37
2017-11-03T12:29:49.221Z,61.76
2017-11-03T12:32:16.662Z,61.61
2017-11-03T12:34:44.119Z,61.88
2017-11-03T12:37:11.568Z,61.37
2017-11-03T12:39:39.004Z,61.05
2017-11-03T12:42:06.621Z,61.32
2017-11-03T12:44:34.132Z,61.09
2017-11-03T12:47:01.530Z,61.01
2017-11-03T12:49:28.964Z,61.28
2017-11-03T12:51:56.375Z,60.57
2017-11-03T12:54:23.783Z,60.19
2017-11-03T12:56:51.249Z,59.63
2017-11-03T12:59:18.717Z,59.94
2017-11-03T13:01:46.141Z,59.90
2017-11-03T13:04:13.605Z,60.18
2017-11-03T13:06:41.058Z,60.57
2017-11-03T13:09:08.454Z,60.71
2017-11-03T13:11:35.904Z,60.88
2017-11-03T13:14:03.323Z,60.36
2017-11-03T13:16:31.639Z,60.20
2017-11-03T13:18:59.093Z,59.93
2017-11-03T13:21:26.495Z,60.31
2017-11-03T13:23:53.948Z,60.04
2017-11-03T13:26:21.375Z,59.47
2017-11-03T13:28:48.853Z,59.99
2017-11-03T13:31:16.292Z,59.74
2017-11-03T13:33:43.736Z,59.90
2017-11-03T13:36:11.140Z,59.41
2017-11-03T13:38:38.609Z,59.49
2017-11-03T13:41:06.004Z,58.79
2017-11-03T13:43:33.404Z,58.74
2017-11-03T13:46:01.693Z,58.63
2017-11-03T13:48:29.096Z,58.69
2017-11-03T13:50:56.522Z,58.78
2017-11-03T13:53:23.916Z,58.53
2017-11-03T13:55:51.370Z,59.04
2017-11-03T13:58:18.779Z,60.12
2017-11-03T14:00:46.219Z,60.33
2017-11-03T14:03:13.671Z,60.61
2017-11-03T14:05:41.131Z,60.45
2017-11-03T14:08:10.285Z,60.74
2017-11-03T14:10:38.163Z,60.69
2017-11-03T14:13:05.672Z,60.60
2017-11-03T14:15:33.107Z,60.78
2017-11-03T14:18:00.540Z,60.74
2017-11-03T14:20:27.944Z,60.73
2017-11-03T14:22:55.364Z,60.80
2017-11-03T14:25:22.789Z,60.83
2017-11-03T14:27:50.217Z,60.99
2017-11-03T14:30:17.658Z,61.46
2017-11-03T14:32:45.095Z,61.69
2017-11-03T14:35:12.564Z,61.94
2017-11-03T14:37:39.977Z,62.12
2017-11-03T14:40:07.518Z,62.24
2017-11-03T14:42:34.941Z,62.74
2017-11-03T14:45:02.387Z,62.77
2017-11-03T14:47:30.517Z,63.01
2017-11-03T14:49:58.005Z,63.07
2017-11-03T14:52:25.400Z,63.11
2017-11-03T14:54:52.901Z,63.35
2017-11-03T14:57:20.379Z,63.42
2017-11-03T14:59:47.783Z,63.34
2017-11-03T15:02:15.243Z,63.44
2017-11-03T15:04:42.675Z,63.49
2017-11-03T15:07:10.101Z,63.80
2017-11-03T15:09:37.515Z,63.75
2017-11-03T15:12:04.988Z,63.75
2017-11-03T15:14:32.423Z,63.77
2017-11-03T15:16:59.868Z,63.94
2017-11-03T15:19:27.335Z,63.96
2017-11-03T15:21:54.748Z,64.01
2017-11-03T15:24:22.185Z,64.18
2017-11-03T15:26:51.945Z,64.25
2017-11-03T15:29:19.388Z,64.13
2017-11-03T15:31:46.791Z,64.41
2017-11-03T15:34:14.241Z,64.53
2017-11-03T15:36:41.708Z,64.58
2017-11-03T15:39:09.145Z,64.55
2017-11-03T15:41:37.676Z,64.53
2017-11-03T15:44:05.120Z,64.71
2017-11-03T15:46:33.237Z,64.79
2017-11-03T15:49:00.705Z,64.86
2017-11-03T15:51:28.137Z,65.01
2017-11-03T15:53:56.348Z,65.00
2017-11-03T15:56:23.822Z,65.03
2017-11-03T15:58:51.299Z,65.01
2017-11-03T16:01:18.785Z,65.20
2017-11-03T16:03:46.211Z,65.32
2017-11-03T16:06:13.686Z,65.44
2017-11-03T16:08:41.111Z,65.68
2017-11-03T16:11:08.610Z,65.85
2017-11-03T16:13:36.040Z,66.07
2017-11-03T16:16:03.516Z,66.29
2017-11-03T16:18:30.953Z,66.29
2017-11-03T16:20:58.378Z,66.49
2017-11-03T16:23:25.811Z,66.79
2017-11-03T16:25:53.219Z,67.16
2017-11-03T16:28:20.665Z,67.62
2017-11-03T16:30:48.079Z,67.95
2017-11-03T16:33:16.184Z,68.12
2017-11-03T16:35:43.591Z,68.27
2017-11-03T16:38:11.023Z,68.56
2017-11-03T16:40:38.447Z,69.01
2017-11-03T16:43:05.879Z,69.22
2017-11-03T16:45:33.288Z,69.48
2017-11-03T16:48:00.751Z,69.49
2017-11-03T16:50:28.179Z,69.60
2017-11-03T16:52:55.594Z,69.92
2017-11-03T16:55:23.058Z,70.09
2017-11-03T16:57:50.504Z,70.26
2017-11-03T17:00:19.733Z,70.65
2017-11-03T17:02:48.103Z,70.85
2017-11-03T17:05:15.554Z,70.91
2017-11-03T17:07:42.952Z,70.95
2017-11-03T17:10:10.368Z,71.32
2017-11-03T17:12:37.839Z,71.52
2017-11-03T17:15:05.262Z,71.44
2017-11-03T17:17:32.712Z,71.88
2017-11-03T17:20:00.132Z,71.81
2017-11-03T17:22:27.591Z,71.90
2017-11-03T17:24:54.996Z,72.25
2017-11-03T17:27:22.454Z,72.44
2017-11-03T17:29:49.961Z,72.97
2017-11-03T17:32:17.462Z,73.20
2017-11-03T17:34:45.246Z,73.40
2017-11-03T17:37:12.693Z,73.36
2017-11-03T17:39:40.100Z,73.32
2017-11-03T17:42:07.549Z,73.07
2017-11-03T17:44:35.015Z,73.57
2017-11-03T17:47:02.513Z,73.86
2017-11-03T17:49:29.913Z,73.76
2017-11-03T17:51:57.402Z,74.27
2017-11-03T17:54:24.843Z,74.24
2017-11-03T17:56:52.256Z,74.55
2017-11-03T17:59:19.701Z,74.83
2017-11-03T18:01:47.128Z,74.64
2017-11-03T18:04:14.598Z,75.00
2017-11-03T18:06:42.018Z,74.81
2017-11-03T18:09:09.544Z,74.67
2017-11-03T18:11:36.984Z,74.92
2017-11-03T18:14:04.434Z,75.04
2017-11-03T18:16:31.874Z,75.02
2017-11-03T18:18:59.708Z,74.87
2017-11-03T18:21:27.224Z,74.86
2017-11-03T18:23:54.685Z,75.10
2017-11-03T18:26:22.161Z,75.16
2017-11-03T18:28:49.579Z,75.17
2017-11-03T18:31:17.016Z,75.25
2017-11-03T18:33:44.438Z,75.17
2017-11-03T18:36:11.885Z,74.83
2017-11-03T18:38:39.377Z,75.01
2017-11-03T18:41:06.860Z,75.03
2017-11-03T18:43:34.308Z,75.19
2017-11-03T18:46:01.797Z,75.18
2017-11-03T18:48:29.392Z,75.28
2017-11-03T18:50:56.825Z,75.43
2017-11-03T18:53:24.272Z,75.63
2017-11-03T18:55:55.148Z,75.74
2017-11-03T18:58:22.613Z,76.03
2017-11-03T19:00:50.060Z,76.32
2017-11-03T19:03:17.512Z,76.16
2017-11-03T19:05:44.971Z,76.17
2017-11-03T19:08:12.426Z,76.16
2017-11-03T19:10:40.140Z,76.10
2017-11-03T19:13:07.649Z,76.35
2017-11-03T19:15:35.103Z,75.93
2017-11-03T19:18:02.550Z,75.60
2017-11-03T19:20:30.069Z,75.41
2017-11-03T19:22:58.344Z,75.59
2017-11-03T19:25:25.926Z,75.62
2017-11-03T19:27:53.345Z,75.57
2017-11-03T19:30:20.832Z,75.79
2017-11-03T19:32:48.286Z,75.99
2017-11-03T19:35:16.056Z,75.90
2017-11-03T19:37:43.568Z,76.01
2017-11-03T19:40:10.983Z,75.53
2017-11-03T19:42:38.456Z,75.26
2017-11-03T19:45:05.950Z,75.28
2017-11-03T19:47:34.658Z,75.37
2017-11-03T19:50:02.784Z,75.51
2017-11-03T19:52:30.204Z,75.53
2017-11-03T19:54:57.702Z,75.80
2017-11-03T19:57:25.591Z,75.95
2017-11-03T19:59:53.103Z,75.90
2017-11-03T20:02:20.635Z,75.73
2017-11-03T20:04:48.124Z,75.21
2017-11-03T20:07:15.538Z,75.12
2017-11-03T20:09:43.833Z,75.27
2017-11-03T20:12:12.340Z,75.49
2017-11-03T20:14:40.784Z,75.63
2017-11-03T20:17:08.283Z,75.62
2017-11-03T20:19:36.656Z,75.56
2017-11-03T20:22:04.265Z,75.53
2017-11-03T20:24:31.829Z,75.40
2017-11-03T20:26:59.297Z,75.76
2017-11-03T20:29:26.748Z,75.64
2017-11-03T20:31:54.248Z,75.17
2017-11-03T20:34:21.711Z,74.83
2017-11-03T20:36:49.196Z,74.74
2017-11-03T20:39:16.685Z,74.97
2017-11-03T20:41:44.140Z,74.95
2017-11-03T20:44:12.549Z,74.91
2017-11-03T20:46:40.862Z,75.01
2017-11-03T20:49:08.380Z,75.23
2017-11-03T20:51:35.898Z,75.16
2017-11-03T20:54:03.445Z,75.16
2017-11-03T20:56:30.927Z,75.28
2017-11-03T20:58:58.337Z,75.46
2017-11-03T21:01:29.456Z,75.48
2017-11-03T21:03:57.597Z,75.40
2017-11-03T21:06:25.068Z,75.46
2017-11-03T21:08:52.493Z,75.72
2017-11-03T21:11:19.993Z,75.36
2017-11-03T21:13:47.458Z,75.40
2017-11-03T21:16:14.894Z,75.41
2017-11-03T21:18:42.370Z,75.52
2017-11-03T21:21:11.094Z,75.57
2017-11-03T21:23:38.613Z,75.21
2017-11-03T21:26:06.100Z,75.42
2017-11-03T21:28:33.537Z,75.88
2017-11-03T21:31:01.083Z,75.61
2017-11-03T21:33:28.545Z,75.24
2017-11-03T21:35:56.036Z,75.43
2017-11-03T21:38:23.465Z,75.51
2017-11-03T21:40:51.861Z,75.85
2017-11-03T21:43:19.284Z,75.66
2017-11-03T21:45:47.265Z,75.33
2017-11-03T21:48:14.685Z,74.93
2017-11-03T21:50:42.151Z,75.50
2017-11-03T21:53:09.646Z,75.24
2017-11-03T21:55:37.279Z,75.48
2017-11-03T21:58:04.686Z,75.58
2017-11-03T22:00:32.115Z,75.88
2017-11-03T22:02:59.565Z,75.80
2017-11-03T22:05:27.028Z,75.53
2017-11-03T22:07:54.467Z,75.45
2017-11-03T22:10:21.898Z,75.70
2017-11-03T22:12:50.385Z,75.80
2017-11-03T22:15:17.827Z,75.87
2017-11-03T22:17:45.257Z,75.67
2017-11-03T22:20:12.748Z,75.37
2017-11-03T22:22:40.180Z,74.87
2017-11-03T22:25:07.656Z,74.55
2017-11-03T22:27:35.125Z,74.85
2017-11-03T22:30:02.612Z,75.08
2017-11-03T22:32:30.041Z,75.10
2017-11-03T22:34:57.561Z,75.04
2017-11-03T22:37:25.026Z,74.99
2017-11-03T22:39:52.475Z,74.91
2017-11-03T22:42:19.897Z,74.94
2017-11-03T22:44:47.367Z,74.96
2017-11-03T22:47:14.813Z,74.81
2017-11-03T22:49:42.239Z,74.91
2017-11-03T22:52:09.728Z,74.99
2017-11-03T22:54:37.183Z,75.30
2017-11-03T22:57:04.613Z,75.47
2017-11-03T22:59:32.061Z,75.20
2017-11-03T23:02:00.808Z,74.81
2017-11-03T23:04:28.286Z,74.78
2017-11-03T23:06:55.730Z,74.81
2017-11-03T23:09:23.396Z,74.64
2017-11-03T23:11:51.120Z,74.47
2017-11-03T23:14:18.512Z,74.11
2017-11-03T23:16:46.596Z,74.12
2017-11-03T23:19:14.017Z,73.95
2017-11-03T23:21:41.931Z,73.81
2017-11-03T23:24:09.401Z,73.79
2017-11-03T23:26:36.871Z,74.32
2017-11-03T23:29:04.328Z,74.18
2017-11-03T23:31:31.884Z,74.06
2017-11-03T23:34:00.333Z,74.24
2017-11-03T23:36:27.746Z,74.27
2017-11-03T23:38:55.178Z,74.58
2017-11-03T23:41:22.688Z,74.42
2017-11-03T23:43:50.180Z,74.31
2017-11-03T23:46:17.576Z,74.50
2017-11-03T23:48:44.997Z,74.69
2017-11-03T23:51:12.468Z,74.96
2017-11-03T23:53:39.885Z,75.33
2017-11-03T23:56:07.328Z,75.26
2017-11-03T23:58:34.746Z,75.13
